Time;durP1;ratioP1;P1;durP2;ratioP2;P2;SDS_P1;SDS_P2;PMS_P1;PMS_P2;Temp;Humidity;BMP_temperature;BMP_pressure;BME280_temperature;BME280_humidity;BME280_pressure;Samples;Min_cycle;Max_cycle;Signal;HPM_P1;HPM_P2
2021/10/26 00:00:41;;;;;;;25.60;13.25;;;;;;;;;;6243985;28;20049;-82
2021/10/26 00:03:43;;;;;;;23.92;13.48;;;;;;;;;;6236106;28;20056;-82
2021/10/26 00:06:45;;;;;;;31.50;14.07;;;;;;;;;;6232963;28;20056;-83
2021/10/26 00:09:46;;;;;;;25.20;13.85;;;;;;;;;;6201130;28;20525;-81
2021/10/26 00:12:48;;;;;;;24.58;12.73;;;;;;;;;;6214955;28;20114;-82
2021/10/26 00:15:51;;;;;;;23.67;13.10;;;;;;;;;;6219776;28;20054;-81
2021/10/26 00:18:53;;;;;;;26.30;14.10;;;;;;;;;;6210174;28;20048;-82
2021/10/26 00:21:55;;;;;;;25.55;14.35;;;;;;;;;;6225650;28;20060;-83
2021/10/26 00:24:56;;;;;;;28.77;14.57;;;;;;;;;;6218576;28;20034;-82
2021/10/26 00:27:58;;;;;;;27.55;14.60;;;;;;;;;;6231580;28;20051;-83
2021/10/26 00:31:00;;;;;;;27.10;14.18;;;;;;;;;;6198151;28;20085;-83
2021/10/26 00:34:02;;;;;;;27.73;14.30;;;;;;;;;;6198944;28;20049;-82
2021/10/26 00:37:04;;;;;;;26.35;15.02;;;;;;;;;;6224160;28;20129;-83
2021/10/26 00:40:07;;;;;;;27.08;14.35;;;;;;;;;;6249075;28;20069;-82
2021/10/26 00:43:09;;;;;;;24.55;13.68;;;;;;;;;;6227196;28;20736;-83
2021/10/26 00:46:11;;;;;;;32.00;14.90;;;;;;;;;;6203865;28;20046;-82
2021/10/26 00:49:13;;;;;;;25.35;14.38;;;;;;;;;;6226675;28;20056;-81
2021/10/26 00:52:15;;;;;;;24.92;13.77;;;;;;;;;;6221654;28;20050;-84
2021/10/26 00:55:19;;;;;;;27.45;15.10;;;;;;;;;;6221902;28;20042;-82
2021/10/26 00:58:21;;;;;;;27.55;14.90;;;;;;;;;;6235067;28;20116;-84
2021/10/26 01:01:26;;;;;;;29.05;14.48;;;;;;;;;;6250706;28;20053;-82
2021/10/26 01:04:28;;;;;;;27.02;14.13;;;;;;;;;;6237159;28;20050;-82
2021/10/26 01:07:31;;;;;;;26.17;15.03;;;;;;;;;;6234582;28;20573;-82
2021/10/26 01:10:34;;;;;;;24.70;14.30;;;;;;;;;;6227878;28;20065;-82
2021/10/26 01:13:38;;;;;;;27.05;14.35;;;;;;;;;;6223667;28;20052;-83
2021/10/26 01:16:41;;;;;;;27.38;14.07;;;;;;;;;;6226964;28;20139;-82
2021/10/26 01:19:46;;;;;;;27.17;14.68;;;;;;;;;;6216103;28;20091;-83
2021/10/26 01:22:48;;;;;;;26.65;14.70;;;;;;;;;;6235209;28;20041;-83
2021/10/26 01:25:50;;;;;;;28.55;14.32;;;;;;;;;;6251639;28;20088;-84
2021/10/26 01:28:52;;;;;;;32.20;15.93;;;;;;;;;;6209953;28;20113;-82
2021/10/26 01:31:55;;;;;;;29.63;14.27;;;;;;;;;;6225738;28;20097;-82
2021/10/26 01:35:05;;;;;;;22.40;13.75;;;;;;;;;;6222016;28;20046;-82
2021/10/26 01:38:07;;;;;;;25.33;13.57;;;;;;;;;;6217921;28;20104;-82
2021/10/26 01:41:11;;;;;;;27.15;14.13;;;;;;;;;;6224133;28;20050;-83
2021/10/26 01:44:13;;;;;;;26.93;14.67;;;;;;;;;;6209711;28;20259;-82
2021/10/26 01:47:18;;;;;;;26.42;14.13;;;;;;;;;;6218714;28;20066;-83
2021/10/26 01:50:20;;;;;;;24.70;13.93;;;;;;;;;;6201128;28;20042;-84
2021/10/26 01:53:22;;;;;;;31.40;15.67;;;;;;;;;;6222475;28;20049;-83
2021/10/26 01:56:24;;;;;;;29.95;15.00;;;;;;;;;;6222838;28;20054;-82
2021/10/26 01:59:35;;;;;;;24.90;15.20;;;;;;;;;;6223957;28;20060;-83
2021/10/26 02:02:40;;;;;;;27.83;14.23;;;;;;;;;;6208314;28;20062;-82
2021/10/26 02:05:42;;;;;;;;;;;;;;;;;;6224432;28;20038;-83
2021/10/26 02:08:44;;;;;;;26.58;13.35;;;;;;;;;;6252230;28;19921;-83
2021/10/26 02:11:46;;;;;;;25.40;13.98;;;;;;;;;;6244777;28;20084;-83
2021/10/26 02:14:48;;;;;;;24.40;12.57;;;;;;;;;;6225643;28;20096;-83
2021/10/26 02:17:50;;;;;;;26.13;13.57;;;;;;;;;;6250294;28;20072;-83
2021/10/26 02:20:52;;;;;;;26.48;13.57;;;;;;;;;;6221773;28;20042;-82
2021/10/26 02:23:54;;;;;;;26.67;14.13;;;;;;;;;;6225316;28;20049;-84
2021/10/26 02:26:56;;;;;;;24.13;13.63;;;;;;;;;;6225720;28;20072;-82
2021/10/26 02:29:58;;;;;;;24.20;14.13;;;;;;;;;;6221954;28;20498;-83
2021/10/26 02:33:00;;;;;;;26.65;13.45;;;;;;;;;;6208760;28;20052;-82
2021/10/26 02:36:02;;;;;;;25.90;13.55;;;;;;;;;;6243418;28;20048;-83
2021/10/26 02:39:04;;;;;;;23.10;13.60;;;;;;;;;;6248809;28;20053;-83
2021/10/26 02:42:07;;;;;;;24.63;12.85;;;;;;;;;;6231507;28;20052;-82
2021/10/26 02:45:10;;;;;;;27.55;13.98;;;;;;;;;;6214482;28;20593;-82
2021/10/26 02:48:12;;;;;;;24.48;13.73;;;;;;;;;;6223990;28;20069;-85
2021/10/26 02:51:15;;;;;;;25.83;14.07;;;;;;;;;;6206591;28;20038;-82
2021/10/26 02:54:16;;;;;;;29.05;13.50;;;;;;;;;;6206763;28;20121;-83
2021/10/26 02:57:19;;;;;;;26.35;14.68;;;;;;;;;;6218097;28;20042;-82
2021/10/26 03:00:21;;;;;;;26.85;14.77;;;;;;;;;;6222512;28;20048;-82
2021/10/26 03:03:24;;;;;;;28.52;14.55;;;;;;;;;;6222149;28;20041;-83
2021/10/26 03:06:26;;;;;;;25.08;14.07;;;;;;;;;;6245731;28;20041;-83
2021/10/26 03:09:28;;;;;;;25.00;14.15;;;;;;;;;;6232911;28;20152;-82
2021/10/26 03:12:30;;;;;;;24.17;14.15;;;;;;;;;;6245906;28;20049;-83
2021/10/26 03:15:32;;;;;;;24.15;13.50;;;;;;;;;;6208632;28;20177;-83
2021/10/26 03:18:43;;;;;;;21.10;12.15;;;;;;;;;;6205466;28;20034;-84
2021/10/26 03:21:46;;;;;;;27.15;13.13;;;;;;;;;;6222176;28;20104;-82
2021/10/26 03:24:48;;;;;;;25.63;14.18;;;;;;;;;;6207752;28;20042;-82
2021/10/26 03:27:50;;;;;;;26.45;12.70;;;;;;;;;;6196058;28;20057;-82
2021/10/26 03:30:52;;;;;;;21.20;12.47;;;;;;;;;;6224395;28;20065;-83
2021/10/26 03:34:07;;;;;;;23.13;12.50;;;;;;;;;;6217656;28;20038;-82
2021/10/26 03:37:09;;;;;;;20.90;12.20;;;;;;;;;;6232973;28;20112;-81
2021/10/26 03:40:12;;;;;;;21.27;12.43;;;;;;;;;;6197099;28;20042;-83
2021/10/26 03:43:14;;;;;;;26.55;13.25;;;;;;;;;;6203704;28;20053;-82
2021/10/26 03:46:17;;;;;;;23.88;12.25;;;;;;;;;;6218858;28;20097;-82
2021/10/26 03:49:19;;;;;;;25.02;13.00;;;;;;;;;;6214188;28;20451;-83
2021/10/26 03:52:21;;;;;;;26.73;13.65;;;;;;;;;;6222287;28;20504;-83
2021/10/26 03:55:23;;;;;;;24.83;12.45;;;;;;;;;;6208453;28;20088;-82
2021/10/26 03:58:32;;;;;;;24.33;11.70;;;;;;;;;;6229475;28;20042;-82
2021/10/26 04:01:41;;;;;;;23.25;12.82;;;;;;;;;;6248295;28;20037;-83
2021/10/26 04:04:43;;;;;;;23.83;12.30;;;;;;;;;;6226596;28;20400;-80
2021/10/26 04:07:54;;;;;;;29.05;13.43;;;;;;;;;;6199670;28;20089;-82
2021/10/26 04:11:19;;;;;;;23.45;11.30;;;;;;;;;;6199098;28;20045;-81
2021/10/26 04:14:18;;;;;;;19.17;10.80;;;;;;;;;;6230227;28;20376;-84
2021/10/26 04:17:26;;;;;;;22.67;12.70;;;;;;;;;;6210873;28;20049;-82
2021/10/26 04:20:29;;;;;;;20.55;12.32;;;;;;;;;;6218446;28;20054;-83
2021/10/26 04:23:32;;;;;;;24.98;12.00;;;;;;;;;;6221944;28;20046;-82
2021/10/26 04:26:34;;;;;;;20.90;12.85;;;;;;;;;;6223852;28;20045;-83
2021/10/26 04:29:36;;;;;;;23.67;12.80;;;;;;;;;;6201246;28;20042;-83
2021/10/26 04:32:39;;;;;;;26.65;12.55;;;;;;;;;;6207321;28;20065;-83
2021/10/26 04:35:43;;;;;;;25.58;12.80;;;;;;;;;;6223195;28;20052;-83
2021/10/26 04:38:45;;;;;;;24.17;13.02;;;;;;;;;;6227126;28;20092;-84
2021/10/26 04:41:47;;;;;;;23.05;12.52;;;;;;;;;;6227344;28;20042;-82
2021/10/26 04:44:48;;;;;;;22.92;12.40;;;;;;;;;;6199808;28;20086;-84
2021/10/26 04:47:52;;;;;;;21.63;11.80;;;;;;;;;;6238627;28;20037;-82
2021/10/26 04:50:54;;;;;;;20.15;11.40;;;;;;;;;;6224551;28;20048;-81
2021/10/26 04:53:56;;;;;;;22.55;12.02;;;;;;;;;;6210778;28;20050;-83
2021/10/26 04:56:58;;;;;;;24.13;12.70;;;;;;;;;;6228755;28;20065;-82
2021/10/26 05:00:10;;;;;;;24.08;12.00;;;;;;;;;;6218916;28;20053;-82
2021/10/26 05:03:11;;;;;;;24.30;13.50;;;;;;;;;;6225926;28;20046;-82
2021/10/26 05:06:14;;;;;;;22.25;12.18;;;;;;;;;;6227104;28;20053;-83
2021/10/26 05:09:16;;;;;;;26.52;13.55;;;;;;;;;;6227355;28;20046;-83
2021/10/26 05:12:18;;;;;;;24.13;13.60;;;;;;;;;;6226877;28;20061;-82
2021/10/26 05:15:20;;;;;;;22.67;12.55;;;;;;;;;;6240456;28;20049;-83
2021/10/26 05:18:44;;;;;;;23.35;11.52;;;;;;;;;;6248243;28;20065;-83
2021/10/26 05:22:05;;;;;;;23.20;11.93;;;;;;;;;;6226613;28;20054;-81
2021/10/26 05:25:25;;;;;;;21.25;9.85;;;;;;;;;;6234562;28;20124;-83
2021/10/26 05:28:38;;;;;;;24.93;12.17;;;;;;;;;;6237163;28;20048;-82
2021/10/26 05:31:39;;;;;;;26.88;11.73;;;;;;;;;;6218850;28;20073;-84
2021/10/26 05:34:41;;;;;;;21.73;10.10;;;;;;;;;;6221737;28;20088;-83
2021/10/26 05:37:43;;;;;;;21.27;12.07;;;;;;;;;;6210737;28;20126;-82
2021/10/26 05:40:45;;;;;;;20.90;11.20;;;;;;;;;;6226516;28;20886;-83
2021/10/26 05:43:46;;;;;;;18.42;11.40;;;;;;;;;;6224907;28;20050;-82
2021/10/26 05:46:48;;;;;;;18.58;10.68;;;;;;;;;;6250440;28;20050;-82
2021/10/26 05:49:49;;;;;;;18.55;10.35;;;;;;;;;;6215970;28;20129;-83
2021/10/26 05:52:51;;;;;;;18.33;9.10;;;;;;;;;;6206247;28;20038;-82
2021/10/26 05:55:53;;;;;;;20.17;9.68;;;;;;;;;;6224949;28;20065;-83
2021/10/26 05:58:55;;;;;;;17.50;7.90;;;;;;;;;;6219598;28;20038;-83
2021/10/26 06:01:56;;;;;;;16.23;7.82;;;;;;;;;;6222812;28;20462;-81
2021/10/26 06:04:58;;;;;;;14.85;8.55;;;;;;;;;;6209000;28;20117;-81
2021/10/26 06:08:01;;;;;;;18.75;8.38;;;;;;;;;;6197511;28;20049;-81
2021/10/26 06:11:08;;;;;;;14.80;7.60;;;;;;;;;;6179764;28;20066;-81
2021/10/26 06:14:10;;;;;;;16.95;8.25;;;;;;;;;;6220214;28;20120;-81
2021/10/26 06:17:14;;;;;;;15.35;7.88;;;;;;;;;;6204067;28;20042;-83
2021/10/26 06:20:20;;;;;;;14.65;7.25;;;;;;;;;;6211989;28;20044;-80
2021/10/26 06:23:23;;;;;;;16.40;6.43;;;;;;;;;;6219190;28;20038;-83
2021/10/26 06:26:25;;;;;;;;;;;;;;;;;;6220190;28;20041;-78
2021/10/26 06:29:31;;;;;;;10.30;5.97;;;;;;;;;;6226070;28;19921;-81
2021/10/26 06:32:55;;;;;;;14.35;6.47;;;;;;;;;;6249292;28;20123;-81
2021/10/26 06:36:13;;;;;;;13.00;6.75;;;;;;;;;;6239036;28;20095;-82
2021/10/26 06:39:18;;;;;;;12.95;6.95;;;;;;;;;;6230261;28;20052;-80
2021/10/26 06:42:20;;;;;;;12.82;7.55;;;;;;;;;;6237874;28;20054;-79
2021/10/26 06:45:53;;;;;;;14.40;7.35;;;;;;;;;;6221267;28;20045;-80
2021/10/26 06:49:13;;;;;;;14.43;6.70;;;;;;;;;;6211709;28;20030;-80
2021/10/26 06:52:35;;;;;;;11.30;7.40;;;;;;;;;;6197982;28;20046;-82
2021/10/26 06:55:59;;;;;;;15.43;7.18;;;;;;;;;;6198236;28;20103;-80
2021/10/26 06:59:19;;;;;;;15.48;7.43;;;;;;;;;;6220301;28;20125;-81
2021/10/26 07:02:49;;;;;;;13.95;6.43;;;;;;;;;;6220263;28;20060;-80
2021/10/26 07:06:09;;;;;;;11.98;6.85;;;;;;;;;;6222347;28;20033;-77
2021/10/26 07:09:11;;;;;;;15.68;6.97;;;;;;;;;;6223240;28;20042;-80
2021/10/26 07:12:36;;;;;;;9.93;5.72;;;;;;;;;;6220428;28;20050;-80
2021/10/26 07:15:38;;;;;;;12.30;6.10;;;;;;;;;;6237923;28;20041;-82
2021/10/26 07:18:40;;;;;;;13.85;6.28;;;;;;;;;;6240347;28;20393;-80
2021/10/26 07:21:42;;;;;;;14.50;6.32;;;;;;;;;;6238791;28;20076;-81
2021/10/26 07:25:11;;;;;;;11.38;5.80;;;;;;;;;;6247914;28;20387;-80
2021/10/26 07:28:12;;;;;;;12.75;8.88;;;;;;;;;;6236632;28;20050;-81
2021/10/26 07:31:18;;;;;;;16.83;8.80;;;;;;;;;;6221661;28;20069;-80
2021/10/26 07:34:21;;;;;;;12.63;8.02;;;;;;;;;;6220113;28;20068;-79
2021/10/26 07:37:29;;;;;;;11.30;7.15;;;;;;;;;;6227226;28;20102;-80
2021/10/26 07:40:40;;;;;;;12.02;6.10;;;;;;;;;;6222006;28;20049;-82
2021/10/26 07:44:16;;;;;;;11.93;5.72;;;;;;;;;;6218476;28;20042;-81
2021/10/26 07:47:50;;;;;;;10.75;5.70;;;;;;;;;;6241417;28;20045;-83
2021/10/26 07:50:57;;;;;;;12.65;5.70;;;;;;;;;;6220398;28;20483;-84
2021/10/26 07:54:00;;;;;;;11.90;5.78;;;;;;;;;;6203154;28;20054;-81
2021/10/26 07:57:02;;;;;;;11.30;5.68;;;;;;;;;;6202179;28;20042;-82
2021/10/26 08:00:06;;;;;;;8.73;5.00;;;;;;;;;;6199733;28;20092;-83
2021/10/26 08:03:47;;;;;;;11.05;5.30;;;;;;;;;;6203269;28;20049;-82
2021/10/26 08:06:50;;;;;;;10.13;4.60;;;;;;;;;;6202317;28;20096;-81
2021/10/26 08:09:54;;;;;;;7.43;4.25;;;;;;;;;;6183104;28;20504;-83
2021/10/26 08:12:56;;;;;;;9.15;4.70;;;;;;;;;;6184141;28;20133;-82
2021/10/26 08:15:58;;;;;;;6.80;4.45;;;;;;;;;;6223701;28;20037;-82
2021/10/26 08:19:02;;;;;;;9.88;5.38;;;;;;;;;;6216431;28;20038;-83
2021/10/26 08:22:15;;;;;;;6.72;3.80;;;;;;;;;;6241917;28;20042;-82
2021/10/26 08:28:23;;;;;;;5.15;3.60;;;;;;;;;;6227327;28;20092;-82
2021/10/26 08:31:38;;;;;;;7.97;3.83;;;;;;;;;;6223009;28;20046;-81
2021/10/26 08:37:47;;;;;;;5.95;3.42;;;;;;;;;;6223458;28;20050;-83
2021/10/26 08:40:49;;;;;;;6.05;4.20;;;;;;;;;;6221925;28;20052;-81
2021/10/26 08:43:53;;;;;;;5.25;3.50;;;;;;;;;;6221125;28;20530;-82
2021/10/26 08:46:55;;;;;;;5.35;3.63;;;;;;;;;;6250543;28;20045;-84
2021/10/26 08:49:59;;;;;;;4.85;3.65;;;;;;;;;;6221658;28;20522;-83
2021/10/26 08:53:07;;;;;;;5.53;3.78;;;;;;;;;;6178384;28;20042;-83
2021/10/26 08:56:32;;;;;;;6.90;3.40;;;;;;;;;;6201253;28;20039;-82
2021/10/26 08:59:52;;;;;;;6.60;4.00;;;;;;;;;;6223475;28;20503;-82
2021/10/26 09:02:54;;;;;;;7.32;3.40;;;;;;;;;;6225231;28;20041;-81
2021/10/26 09:05:57;;;;;;;3.72;3.30;;;;;;;;;;6214755;28;20046;-83
2021/10/26 09:09:01;;;;;;;7.80;3.97;;;;;;;;;;6219246;28;20046;-81
2021/10/26 09:19:26;;;;;;;6.95;3.25;;;;;;;;;;6221621;28;20042;-80
2021/10/26 09:22:31;;;;;;;5.20;3.15;;;;;;;;;;6223018;28;20410;-78
2021/10/26 09:25:37;;;;;;;5.72;3.25;;;;;;;;;;6220623;28;20116;-79
2021/10/26 09:28:49;;;;;;;9.05;3.55;;;;;;;;;;6218931;28;20057;-81
2021/10/26 09:31:51;;;;;;;4.43;2.77;;;;;;;;;;6201156;28;20053;-81
2021/10/26 09:34:56;;;;;;;4.00;2.65;;;;;;;;;;6207369;28;20385;-78
2021/10/26 09:37:58;;;;;;;6.03;2.63;;;;;;;;;;6224094;28;20129;-82
2021/10/26 09:41:05;;;;;;;7.47;3.45;;;;;;;;;;6225682;28;20049;-82
2021/10/26 09:44:11;;;;;;;5.32;3.40;;;;;;;;;;6220620;28;20041;-81
2021/10/26 09:47:21;;;;;;;5.15;3.58;;;;;;;;;;6223823;28;20098;-79
2021/10/26 09:50:30;;;;;;;7.07;2.80;;;;;;;;;;6203770;28;20137;-82
2021/10/26 09:53:34;;;;;;;4.85;2.65;;;;;;;;;;6189893;28;20042;-80
2021/10/26 09:56:36;;;;;;;4.38;2.60;;;;;;;;;;6198440;28;20046;-80
2021/10/26 09:59:52;;;;;;;4.13;2.88;;;;;;;;;;6197845;28;20045;-82
2021/10/26 10:03:00;;;;;;;4.78;3.10;;;;;;;;;;6205504;28;20666;-81
2021/10/26 10:06:05;;;;;;;3.53;2.53;;;;;;;;;;6213569;28;20426;-82
2021/10/26 10:09:18;;;;;;;5.97;2.80;;;;;;;;;;6215593;28;20057;-80
2021/10/26 10:12:23;;;;;;;5.35;3.70;;;;;;;;;;6230461;28;20102;-80
2021/10/26 10:15:24;;;;;;;4.13;2.80;;;;;;;;;;6237899;28;20203;-80
2021/10/26 10:18:26;;;;;;;4.85;2.65;;;;;;;;;;6240995;28;20112;-79
2021/10/26 10:21:30;;;;;;;9.07;2.65;;;;;;;;;;6241836;28;20057;-79
2021/10/26 10:24:40;;;;;;;4.45;2.70;;;;;;;;;;6243522;28;20045;-79
2021/10/26 10:27:43;;;;;;;3.25;2.55;;;;;;;;;;6243663;28;20117;-79
2021/10/26 10:30:47;;;;;;;2.90;2.30;;;;;;;;;;6244886;28;20045;-80
2021/10/26 10:33:50;;;;;;;3.67;2.40;;;;;;;;;;6243009;28;20112;-80
2021/10/26 10:36:53;;;;;;;5.70;2.20;;;;;;;;;;6243521;28;20136;-80
2021/10/26 10:40:00;;;;;;;4.20;2.40;;;;;;;;;;6246520;28;20506;-79
2021/10/26 10:43:01;;;;;;;5.50;2.22;;;;;;;;;;6239177;28;20067;-82
2021/10/26 10:46:03;;;;;;;5.97;2.72;;;;;;;;;;6251584;28;20064;-82
2021/10/26 10:49:20;;;;;;;4.45;2.03;;;;;;;;;;6256239;28;20295;-82
2021/10/26 10:52:32;;;;;;;2.97;2.13;;;;;;;;;;6196905;28;20053;-81
2021/10/26 10:55:36;;;;;;;3.83;1.98;;;;;;;;;;6198726;28;20130;-82
2021/10/26 10:58:42;;;;;;;5.85;1.83;;;;;;;;;;6206094;28;20052;-80
2021/10/26 11:01:46;;;;;;;34.40;21.13;;;;;;;;;;6216844;28;20053;-84
2021/10/26 11:04:48;;;;;;;21.10;12.25;;;;;;;;;;6225023;28;20050;-80
2021/10/26 11:07:51;;;;;;;;;;;;;;;;;;6224335;28;20060;-83
2021/10/26 11:10:53;;;;;;;4.00;2.75;;;;;;;;;;6224837;28;19925;-82
2021/10/26 11:14:40;;;;;;;2.40;1.30;;;;;;;;;;6221132;28;20056;-81
2021/10/26 11:17:43;;;;;;;3.50;3.20;;;;;;;;;;6232114;28;20046;-82
2021/10/26 11:20:46;;;;;;;6.57;2.00;;;;;;;;;;6230047;28;20045;-84
2021/10/26 11:23:51;;;;;;;3.55;1.35;;;;;;;;;;6230943;28;20045;-81
2021/10/26 11:26:52;;;;;;;4.30;1.70;;;;;;;;;;6233753;28;20060;-83
2021/10/26 11:29:58;;;;;;;2.08;1.48;;;;;;;;;;6227823;28;20053;-83
2021/10/26 11:33:09;;;;;;;1.85;1.20;;;;;;;;;;6226855;28;20041;-80
2021/10/26 11:36:16;;;;;;;4.88;1.63;;;;;;;;;;6246806;28;20045;-81
2021/10/26 11:39:18;;;;;;;2.63;1.33;;;;;;;;;;6249567;28;20144;-80
2021/10/26 11:42:20;;;;;;;2.40;1.20;;;;;;;;;;6247841;28;20137;-82
2021/10/26 11:45:22;;;;;;;3.78;1.77;;;;;;;;;;6237923;28;20547;-81
2021/10/26 11:48:59;;;;;;;2.53;1.27;;;;;;;;;;6235794;28;20104;-84
2021/10/26 11:52:03;;;;;;;2.13;1.50;;;;;;;;;;6224247;28;20041;-83
2021/10/26 11:55:05;;;;;;;6.45;1.80;;;;;;;;;;6239780;28;20042;-83
2021/10/26 11:58:10;;;;;;;3.13;1.77;;;;;;;;;;6244348;28;20068;-82
2021/10/26 12:01:13;;;;;;;3.00;1.33;;;;;;;;;;6225774;28;20049;-82
2021/10/26 12:04:24;;;;;;;4.10;1.25;;;;;;;;;;6218474;28;20042;-82
2021/10/26 12:07:28;;;;;;;2.30;1.30;;;;;;;;;;6223644;28;20054;-82
2021/10/26 12:10:31;;;;;;;8.82;3.17;;;;;;;;;;6226806;28;20053;-82
2021/10/26 12:13:34;;;;;;;3.70;1.52;;;;;;;;;;6223644;28;20053;-82
2021/10/26 12:16:36;;;;;;;5.40;2.53;;;;;;;;;;6230590;28;20045;-82
2021/10/26 12:20:01;;;;;;;2.33;1.70;;;;;;;;;;6222611;28;20653;-83
2021/10/26 12:23:06;;;;;;;9.70;6.65;;;;;;;;;;6227703;28;20520;-82
2021/10/26 12:26:20;;;;;;;28.08;17.60;;;;;;;;;;6228669;28;20648;-82
2021/10/26 12:29:32;;;;;;;4.00;1.08;;;;;;;;;;6202452;28;20439;-81
2021/10/26 12:32:34;;;;;;;2.88;1.20;;;;;;;;;;6198194;28;20078;-82
2021/10/26 12:35:50;;;;;;;4.97;3.50;;;;;;;;;;6196973;28;20165;-81
2021/10/26 12:39:04;;;;;;;5.10;1.98;;;;;;;;;;6197749;28;20061;-82
2021/10/26 12:42:07;;;;;;;7.55;4.82;;;;;;;;;;6201908;28;20061;-83
2021/10/26 12:45:10;;;;;;;;;;;;;;;;;;6201230;28;20049;-81
2021/10/26 12:48:13;;;;;;;1.70;1.13;;;;;;;;;;6198968;28;19949;-82
2021/10/26 12:51:22;;;;;;;5.95;4.30;;;;;;;;;;6208066;28;20127;-82
2021/10/26 12:54:25;;;;;;;3.28;1.83;;;;;;;;;;6230792;28;20673;-81
2021/10/26 12:57:37;;;;;;;1.98;1.10;;;;;;;;;;6238166;28;20064;-82
2021/10/26 13:00:47;;;;;;;3.63;1.25;;;;;;;;;;6248629;28;20037;-82
2021/10/26 13:03:56;;;;;;;2.53;1.30;;;;;;;;;;6245998;28;20049;-81
2021/10/26 13:07:00;;;;;;;4.95;2.90;;;;;;;;;;6243337;28;20056;-80
2021/10/26 13:10:08;;;;;;;4.40;2.25;;;;;;;;;;6244665;28;20044;-81
2021/10/26 13:13:11;;;;;;;2.63;1.40;;;;;;;;;;6241780;28;20128;-81
2021/10/26 13:16:37;;;;;;;3.13;1.77;;;;;;;;;;6244974;28;20117;-80
2021/10/26 13:19:38;;;;;;;3.22;1.38;;;;;;;;;;6244132;28;20148;-81
2021/10/26 13:23:08;;;;;;;3.45;1.50;;;;;;;;;;6236782;28;20503;-80
2021/10/26 13:26:14;;;;;;;3.20;1.20;;;;;;;;;;6227118;28;20045;-81
2021/10/26 13:29:16;;;;;;;2.38;1.40;;;;;;;;;;6251452;28;20050;-81
2021/10/26 13:32:23;;;;;;;2.60;1.00;;;;;;;;;;6219481;28;20065;-81
2021/10/26 13:35:25;;;;;;;4.70;1.83;;;;;;;;;;6218978;28;21000;-81
2021/10/26 13:38:28;;;;;;;1.75;1.40;;;;;;;;;;6202775;28;20057;-80
2021/10/26 13:41:29;;;;;;;2.78;1.20;;;;;;;;;;6214947;28;20057;-79
2021/10/26 13:44:31;;;;;;;3.63;1.20;;;;;;;;;;6195599;28;20046;-81
2021/10/26 13:47:46;;;;;;;3.38;1.20;;;;;;;;;;6208504;28;20042;-79
2021/10/26 13:50:49;;;;;;;3.40;1.10;;;;;;;;;;6199572;28;20105;-80
2021/10/26 13:53:51;;;;;;;;;;;;;;;;;;6202630;28;20051;-78
2021/10/26 13:56:52;;;;;;;1.42;1.15;;;;;;;;;;6198274;28;19926;-79
2021/10/26 13:59:54;;;;;;;2.67;1.00;;;;;;;;;;6200406;28;20077;-81
2021/10/26 14:02:55;;;;;;;2.85;1.33;;;;;;;;;;6196135;28;20045;-81
2021/10/26 14:05:57;;;;;;;2.55;1.15;;;;;;;;;;6204917;28;20053;-81
2021/10/26 14:08:59;;;;;;;2.03;1.38;;;;;;;;;;6202466;28;20824;-82
2021/10/26 14:12:00;;;;;;;1.45;1.20;;;;;;;;;;6214005;28;20042;-80
2021/10/26 14:15:02;;;;;;;3.63;1.25;;;;;;;;;;6219862;28;20038;-79
2021/10/26 14:18:06;;;;;;;2.22;1.40;;;;;;;;;;6220083;28;20516;-80
2021/10/26 14:21:08;;;;;;;;;;;;;;;;;;6218283;28;20052;-81
2021/10/26 14:24:09;;;;;;;3.15;1.20;;;;;;;;;;6200205;28;20329;-81
2021/10/26 14:27:16;;;;;;;2.33;1.33;;;;;;;;;;6215391;28;20048;-81
2021/10/26 14:30:21;;;;;;;1.85;1.20;;;;;;;;;;6218397;28;20045;-82
2021/10/26 14:33:23;;;;;;;3.63;1.13;;;;;;;;;;6237244;28;20047;-82
2021/10/26 14:36:39;;;;;;;3.45;1.20;;;;;;;;;;6216520;28;20411;-80
2021/10/26 14:56:06;;;;;;;1.33;1.15;;;;;;;;;;6216887;28;20084;-81
2021/10/26 14:59:09;;;;;;;1.23;1.02;;;;;;;;;;6187640;28;20507;-80
2021/10/26 15:02:11;;;;;;;2.28;1.30;;;;;;;;;;6211071;28;20050;-82
2021/10/26 15:05:13;;;;;;;2.05;1.20;;;;;;;;;;6216964;28;20419;-81
2021/10/26 15:08:15;;;;;;;2.83;1.50;;;;;;;;;;6245510;28;20045;-81
2021/10/26 15:11:18;;;;;;;3.63;1.50;;;;;;;;;;6233991;28;20058;-81
2021/10/26 15:14:25;;;;;;;1.40;0.95;;;;;;;;;;6211587;28;20120;-81
2021/10/26 15:17:27;;;;;;;2.13;1.10;;;;;;;;;;6210450;28;20062;-82
2021/10/26 15:20:30;;;;;;;1.63;1.25;;;;;;;;;;6204642;28;20052;-83
2021/10/26 15:33:30;;;;;;;2.65;1.30;;;;;;;;;;6186598;28;20034;-82
2021/10/26 15:36:31;;;;;;;2.63;1.40;;;;;;;;;;6203844;28;20141;-80
2021/10/26 15:39:35;;;;;;;4.82;1.98;;;;;;;;;;6193496;28;20115;-82
2021/10/26 15:42:37;;;;;;;;;;;;;;;;;;6189306;28;20045;-80
2021/10/26 15:45:40;;;;;;;3.47;1.85;;;;;;;;;;6206379;28;20372;-80
2021/10/26 15:48:42;;;;;;;2.97;1.60;;;;;;;;;;6189370;28;20388;-79
2021/10/26 15:51:44;;;;;;;4.05;1.50;;;;;;;;;;6199568;28;20067;-81
2021/10/26 15:54:46;;;;;;;5.38;2.05;;;;;;;;;;6200014;28;20042;-81
2021/10/26 15:57:48;;;;;;;2.35;1.48;;;;;;;;;;6199621;28;20085;-81
2021/10/26 16:00:50;;;;;;;2.80;1.50;;;;;;;;;;6217191;28;20124;-81
2021/10/26 16:03:53;;;;;;;4.95;1.83;;;;;;;;;;6210319;28;20419;-80
2021/10/26 16:06:55;;;;;;;3.05;1.40;;;;;;;;;;6209449;28;20108;-80
2021/10/26 16:10:02;;;;;;;2.22;1.33;;;;;;;;;;6207967;28;20045;-80
2021/10/26 16:13:11;;;;;;;2.17;1.42;;;;;;;;;;6192904;28;20479;-82
2021/10/26 16:16:23;;;;;;;3.75;1.70;;;;;;;;;;6202519;28;20044;-80
2021/10/26 16:19:25;;;;;;;3.55;1.58;;;;;;;;;;6215695;28;20038;-80
2021/10/26 16:22:27;;;;;;;5.28;2.40;;;;;;;;;;6213084;28;20178;-82
2021/10/26 16:25:29;;;;;;;4.33;2.90;;;;;;;;;;6216761;28;20054;-81
2021/10/26 16:28:31;;;;;;;3.60;2.10;;;;;;;;;;6213348;28;20061;-80
2021/10/26 16:31:33;;;;;;;3.90;1.80;;;;;;;;;;6219309;28;20050;-81
2021/10/26 16:34:35;;;;;;;3.22;1.58;;;;;;;;;;6218006;28;20525;-82
2021/10/26 16:37:37;;;;;;;2.47;1.50;;;;;;;;;;6203386;28;20066;-82
2021/10/26 16:40:40;;;;;;;2.92;1.90;;;;;;;;;;6202238;28;20105;-81
2021/10/26 16:43:47;;;;;;;3.85;1.63;;;;;;;;;;6214156;28;20042;-80
2021/10/26 16:47:07;;;;;;;3.50;1.90;;;;;;;;;;6222584;28;20062;-80
2021/10/26 16:50:10;;;;;;;3.17;1.80;;;;;;;;;;6220346;28;20065;-82
2021/10/26 16:53:11;;;;;;;3.77;1.93;;;;;;;;;;6219387;28;20121;-81
2021/10/26 16:56:13;;;;;;;5.53;2.40;;;;;;;;;;6217550;28;20457;-80
2021/10/26 16:59:15;;;;;;;3.40;1.80;;;;;;;;;;6222737;28;20088;-81
2021/10/26 17:02:18;;;;;;;5.72;2.60;;;;;;;;;;6216316;28;20110;-80
2021/10/26 17:05:20;;;;;;;4.10;2.10;;;;;;;;;;6218331;28;20068;-80
2021/10/26 17:08:23;;;;;;;3.22;2.28;;;;;;;;;;6220276;28;20419;-81
2021/10/26 17:11:25;;;;;;;3.33;1.90;;;;;;;;;;6221996;28;20046;-80
2021/10/26 17:14:30;;;;;;;4.47;1.88;;;;;;;;;;6217813;28;20495;-82
2021/10/26 17:17:37;;;;;;;4.43;2.00;;;;;;;;;;6224253;28;20065;-82
2021/10/26 17:20:41;;;;;;;4.45;2.00;;;;;;;;;;6215951;28;20048;-81
2021/10/26 17:23:43;;;;;;;4.55;2.25;;;;;;;;;;6219582;28;20041;-81
2021/10/26 17:26:45;;;;;;;7.13;2.58;;;;;;;;;;6212089;28;20041;-82
2021/10/26 17:29:47;;;;;;;5.43;2.20;;;;;;;;;;6241522;28;20049;-82
2021/10/26 17:32:48;;;;;;;4.88;2.22;;;;;;;;;;6241119;28;20045;-82
2021/10/26 17:35:52;;;;;;;4.03;2.38;;;;;;;;;;6215891;28;20046;-82
2021/10/26 17:38:56;;;;;;;2.85;1.73;;;;;;;;;;6217940;28;20049;-80
2021/10/26 17:41:58;;;;;;;5.88;3.13;;;;;;;;;;6219258;28;20034;-83
2021/10/26 17:44:59;;;;;;;4.35;2.42;;;;;;;;;;6199257;28;20563;-80
2021/10/26 17:48:01;;;;;;;4.78;2.50;;;;;;;;;;6216991;28;20046;-81
2021/10/26 17:51:05;;;;;;;6.13;2.22;;;;;;;;;;6214869;28;20042;-82
2021/10/26 17:54:09;;;;;;;6.25;2.63;;;;;;;;;;6213505;28;20046;-82
2021/10/26 17:57:10;;;;;;;4.78;2.15;;;;;;;;;;6211132;28;20093;-81
2021/10/26 18:00:12;;;;;;;4.78;2.22;;;;;;;;;;6211809;28;20066;-82
2021/10/26 18:03:15;;;;;;;3.58;2.20;;;;;;;;;;6210547;28;20038;-81
2021/10/26 18:06:22;;;;;;;5.75;2.10;;;;;;;;;;6208859;28;20049;-81
2021/10/26 18:09:24;;;;;;;3.88;2.00;;;;;;;;;;6212188;28;20100;-83
2021/10/26 18:12:25;;;;;;;4.90;1.85;;;;;;;;;;6202331;28;20705;-82
2021/10/26 18:15:30;;;;;;;7.50;2.47;;;;;;;;;;6213303;28;20277;-84
2021/10/26 18:18:33;;;;;;;4.63;2.58;;;;;;;;;;6240008;28;20404;-83
2021/10/26 18:21:35;;;;;;;5.43;2.70;;;;;;;;;;6221938;28;20050;-82
2021/10/26 18:24:37;;;;;;;4.35;2.13;;;;;;;;;;6220668;28;20049;-84
2021/10/26 18:27:39;;;;;;;4.85;2.10;;;;;;;;;;6221682;28;20165;-84
2021/10/26 18:30:41;;;;;;;5.95;2.53;;;;;;;;;;6232748;28;20060;-85
2021/10/26 18:33:43;;;;;;;3.50;2.40;;;;;;;;;;6229155;28;20045;-84
2021/10/26 18:36:45;;;;;;;6.78;2.92;;;;;;;;;;6217618;28;20228;-84
2021/10/26 18:39:46;;;;;;;4.97;3.22;;;;;;;;;;6194322;28;20062;-84
2021/10/26 18:42:51;;;;;;;5.82;2.95;;;;;;;;;;6210949;28;20124;-85
2021/10/26 18:45:57;;;;;;;5.13;3.10;;;;;;;;;;6206253;28;20049;-85
2021/10/26 18:48:58;;;;;;;5.28;2.83;;;;;;;;;;6208560;28;20410;-85
2021/10/26 18:52:00;;;;;;;7.90;3.40;;;;;;;;;;6218461;28;20129;-84
2021/10/26 18:55:02;;;;;;;6.80;2.88;;;;;;;;;;6195044;28;20056;-85
2021/10/26 18:58:04;;;;;;;9.53;3.37;;;;;;;;;;6202805;28;20037;-85
2021/10/26 19:01:06;;;;;;;7.47;2.83;;;;;;;;;;6231380;28;20041;-85